Time;durP1;ratioP1;P1;durP2;ratioP2;P2;SDS_P1;SDS_P2;PMS_P1;PMS_P2;Temp;Humidity;BMP_temperature;BMP_pressure;BME280_temperature;BME280_humidity;BME280_pressure;Samples;Min_cycle;Max_cycle;Signal;HPM_P1;HPM_P2
2022/06/15 04:42:41;;;;;;;7.97;1.95;;;;;;;16.06;60.72;100288.23;1728886;82;21599;-38
2022/06/15 04:45:10;;;;;;;3.90;1.72;;;;;;;16.30;60.37;100285.48;1676004;84;21079;-43
2022/06/15 04:47:40;;;;;;;5.75;1.60;;;;;;;16.43;58.71;100286.05;1689111;84;21082;-38
2022/06/15 04:53:42;;;;;;;4.95;2.02;;;;;;;16.63;57.97;100289.50;1689801;83;21129;31
2022/06/15 04:56:12;;;;;;;5.00;2.02;;;;;;;16.74;57.43;100276.48;1617922;88;21506;-42
2022/06/15 04:58:43;;;;;;;4.45;1.85;;;;;;;16.84;57.55;100292.11;1650097;87;21109;-38
2022/06/15 05:01:11;;;;;;;7.30;1.92;;;;;;;16.96;57.48;100287.82;1618462;88;21045;-39
2022/06/15 05:03:38;;;;;;;4.45;1.98;;;;;;;17.11;58.08;100294.03;1636759;88;21604;-39
2022/06/15 05:06:20;;;;;;;3.83;1.55;;;;;;;17.26;57.01;100293.59;1618042;88;21085;-38
2022/06/15 05:08:50;;;;;;;6.47;1.85;;;;;;;17.37;55.82;100293.30;1628776;88;21124;-41
2022/06/15 05:11:18;;;;;;;5.33;2.12;;;;;;;17.47;56.00;100290.82;1640414;87;21067;-39
2022/06/15 05:13:47;;;;;;;5.37;1.82;;;;;;;17.54;55.50;100293.70;1637705;87;21050;-39
2022/06/15 05:16:14;;;;;;;9.38;2.95;;;;;;;17.62;55.16;100296.56;1643647;87;21010;-44
2022/06/15 05:18:41;;;;;;;3.33;2.00;;;;;;;17.70;55.63;100295.45;1635952;88;21608;-39
2022/06/15 05:21:11;;;;;;;5.97;1.90;;;;;;;17.81;55.81;100290.75;1609993;88;21081;-39
2022/06/15 05:23:39;;;;;;;5.40;2.12;;;;;;;17.92;54.89;100299.69;1643789;85;21077;-39
2022/06/15 05:26:05;;;;;;;7.92;1.92;;;;;;;17.97;54.13;100300.39;1616526;87;20977;-40
2022/06/15 05:28:54;;;;;;;7.10;1.87;;;;;;;18.03;54.58;100304.20;1635156;86;20973;-39
2022/06/15 05:31:30;;;;;;;7.70;1.95;;;;;;;18.11;53.95;100299.13;1660880;84;21025;-40
2022/06/15 05:33:58;;;;;;;7.70;1.55;;;;;;;18.12;53.50;100310.12;1689257;83;21064;-40
2022/06/15 05:36:30;;;;;;;2.77;1.87;;;;;;;18.14;53.35;100306.95;1665839;86;21085;-45
2022/06/15 05:38:57;;;;;;;2.00;1.37;;;;;;;18.19;52.92;100307.69;1643975;85;21061;-45
2022/06/15 05:41:25;;;;;;;3.77;1.40;;;;;;;18.26;52.57;100306.57;1628585;86;21030;-45
2022/06/15 05:43:52;;;;;;;3.77;1.35;;;;;;;18.31;52.21;100311.27;1637536;86;21045;-44
2022/06/15 05:46:26;;;;;;;4.15;1.57;;;;;;;18.34;51.62;100308.08;1624509;85;21021;-39
2022/06/15 05:48:55;;;;;;;3.22;1.32;;;;;;;18.39;51.93;100310.59;1648424;85;21151;-39
2022/06/15 05:51:23;;;;;;;4.42;2.15;;;;;;;18.49;51.49;100316.44;1639667;85;21359;-40
2022/06/15 05:53:54;;;;;;;7.05;1.55;;;;;;;18.55;51.51;100313.16;1662530;84;21081;-45
2022/06/15 05:56:23;;;;;;;4.37;1.42;;;;;;;18.64;50.72;100315.09;1642982;87;20963;-45
2022/06/15 05:58:51;;;;;;;4.87;1.30;;;;;;;18.72;49.48;100313.94;1644836;85;21073;-45
2022/06/15 06:01:33;;;;;;;5.33;1.27;;;;;;;18.78;49.29;100308.43;1633069;87;21025;-45
2022/06/15 06:04:01;;;;;;;5.53;1.40;;;;;;;18.83;49.45;100305.17;1632505;86;21077;-40
2022/06/15 06:06:29;;;;;;;3.10;1.47;;;;;;;18.93;49.39;100302.22;1648309;85;20961;-44
2022/06/15 06:08:58;;;;;;;6.28;1.62;;;;;;;19.05;48.99;100303.98;1661576;84;21181;-40
2022/06/15 06:11:26;;;;;;;4.72;1.50;;;;;;;19.16;49.10;100309.38;1639527;87;21903;-44
2022/06/15 06:13:53;;;;;;;8.03;1.62;;;;;;;19.27;47.96;100300.59;1627460;87;20991;-44
2022/06/15 06:16:21;;;;;;;2.92;1.10;;;;;;;19.37;47.23;100302.00;1643515;87;21006;-45
2022/06/15 06:18:51;;;;;;;4.62;1.42;;;;;;;19.45;46.41;100303.91;1643592;86;21129;-45
2022/06/15 06:21:20;;;;;;;8.23;1.35;;;;;;;19.52;45.93;100302.75;1643604;86;21529;-42
2022/06/15 06:23:47;;;;;;;4.35;1.12;;;;;;;19.58;46.69;100307.86;1651424;85;21081;-45
2022/06/15 06:26:27;;;;;;;8.83;1.40;;;;;;;19.65;45.40;100306.70;1627207;87;21112;-45
2022/06/15 06:28:56;;;;;;;5.20;1.17;;;;;;;19.79;45.68;100304.88;1628113;86;21198;-41
2022/06/15 06:31:27;;;;;;;2.17;1.17;;;;;;;19.94;45.31;100314.03;1648230;86;21029;-40
2022/06/15 06:34:23;;;;;;;;;;;;;;;19.99;43.75;100309.42;1631681;86;21072;-46
2022/06/15 06:37:07;;;;;;;9.48;1.40;;;;;;;19.96;42.90;100310.88;1634184;86;20190;-45
2022/06/15 06:39:36;;;;;;;1.98;1.10;;;;;;;19.92;43.18;100311.91;1628823;85;21062;-45
2022/06/15 06:42:10;;;;;;;3.27;1.00;;;;;;;19.99;43.47;100313.86;1623926;86;21227;-41
2022/06/15 06:44:43;;;;;;;;;;;;;;;20.12;43.00;100318.66;1645358;87;21081;-41
2022/06/15 06:47:12;;;;;;;3.72;0.85;;;;;;;20.23;42.96;100313.37;1629898;87;20169;-41
2022/06/15 06:49:41;;;;;;;5.97;1.05;;;;;;;20.38;42.36;100312.30;1604381;87;21203;-45
2022/06/15 06:52:08;;;;;;;4.53;1.15;;;;;;;20.51;42.44;100311.37;1619795;86;21895;-41
2022/06/15 06:54:35;;;;;;;4.10;1.27;;;;;;;20.59;42.38;100314.60;1641285;85;21082;-41
2022/06/15 06:57:03;;;;;;;5.70;0.90;;;;;;;20.51;42.14;100315.83;1625465;86;21941;-41
2022/06/15 06:59:31;;;;;;;3.25;1.00;;;;;;;20.39;42.16;100314.50;1614691;88;21706;-43
2022/06/15 07:01:59;;;;;;;2.20;1.40;;;;;;;20.30;41.70;100316.21;1615746;88;21683;-40
2022/06/15 07:04:26;;;;;;;3.10;1.35;;;;;;;20.25;41.98;100316.85;1634389;88;21108;-44
2022/06/15 07:06:59;;;;;;;2.25;0.78;;;;;;;20.22;40.78;100318.28;1628345;87;21392;-44
2022/06/15 07:09:44;;;;;;;3.20;1.15;;;;;;;20.19;42.45;100309.98;1627080;86;21585;-39
2022/06/15 07:12:26;;;;;;;3.12;1.12;;;;;;;20.29;41.88;100312.66;1594561;87;21016;-45
2022/06/15 07:14:56;;;;;;;6.62;1.25;;;;;;;20.44;42.07;100311.20;1642534;80;21120;-40
2022/06/15 07:17:24;;;;;;;1.70;0.75;;;;;;;20.58;41.49;100304.02;1695187;80;21115;-43
2022/06/15 07:19:59;;;;;;;3.22;1.27;;;;;;;20.64;40.67;100307.31;1735823;81;21052;-43
2022/06/15 07:22:31;;;;;;;4.15;1.00;;;;;;;20.70;41.50;100298.22;1688852;81;21851;-45
2022/06/15 07:25:00;;;;;;;2.60;1.02;;;;;;;20.84;40.90;100302.47;1701722;82;21491;-45
2022/06/15 07:27:39;;;;;;;5.87;1.32;;;;;;;20.93;41.23;100301.20;1701992;83;21118;-39
2022/06/15 07:30:28;;;;;;;13.08;0.80;;;;;;;20.97;40.69;100294.37;1639803;84;21098;-44
2022/06/15 07:33:11;;;;;;;4.28;0.78;;;;;;;21.00;40.28;100292.06;1650111;83;21640;-44
2022/06/15 07:35:44;;;;;;;1.90;1.00;;;;;;;21.04;40.44;100298.95;1739247;81;21579;-45
2022/06/15 07:38:19;;;;;;;1.62;0.90;;;;;;;20.99;38.74;100298.31;1742219;81;21130;-44
2022/06/15 07:40:59;;;;;;;2.60;1.87;;;;;;;20.89;39.46;100296.97;1697973;80;21373;-40
2022/06/15 07:43:27;;;;;;;5.33;1.22;;;;;;;20.84;39.34;100299.81;1732955;81;21822;-40
2022/06/15 07:46:12;;;;;;;2.90;1.10;;;;;;;20.83;39.24;100297.23;1746215;81;21053;-45
2022/06/15 07:52:05;;;;;;;3.37;0.98;;;;;;;20.85;41.72;100296.69;1738522;81;21524;-40
2022/06/15 07:54:34;;;;;;;4.43;1.30;;;;;;;20.79;41.45;100290.30;1738981;81;21414;-39
2022/06/15 07:57:05;;;;;;;3.20;1.22;;;;;;;20.71;41.34;100301.27;1737911;80;21681;-44
2022/06/15 07:59:32;;;;;;;7.60;1.12;;;;;;;20.77;41.44;100300.15;1692186;82;21073;-45
2022/06/15 08:01:59;;;;;;;3.75;1.20;;;;;;;20.72;41.39;100303.85;1716275;81;20997;-40
2022/06/15 08:04:26;;;;;;;4.28;1.02;;;;;;;20.65;41.85;100299.73;1737151;80;21105;-41
2022/06/15 08:06:54;;;;;;;7.22;1.35;;;;;;;20.59;40.91;100309.75;1719928;81;20978;-45
2022/06/15 08:09:22;;;;;;;1.25;0.80;;;;;;;20.58;41.75;100302.21;1739857;81;21118;-45
2022/06/15 08:14:37;;;;;;;1.47;0.70;;;;;;;20.54;38.56;100313.06;1729047;81;21049;-40
2022/06/15 08:17:07;;;;;;;9.98;1.07;;;;;;;20.53;39.99;100308.21;1745916;81;21042;-42
2022/06/15 08:19:36;;;;;;;3.02;1.20;;;;;;;20.56;40.08;100305.41;1744326;81;21075;-45
2022/06/15 08:22:03;;;;;;;5.28;1.45;;;;;;;20.64;39.43;100299.33;1734811;81;21018;-45
2022/06/15 08:24:31;;;;;;;5.60;0.78;;;;;;;20.85;38.99;100291.37;1718257;81;21045;-40
2022/06/15 08:26:58;;;;;;;2.90;0.80;;;;;;;20.99;39.83;100290.34;1693683;83;20997;-45
2022/06/15 08:29:25;;;;;;;0.50;0.50;;;;;;;21.18;39.43;100287.27;1727285;81;21061;-45
2022/06/15 08:31:57;;;;;;;3.17;1.05;;;;;;;21.31;37.52;100302.72;1721692;81;20997;-40
2022/06/15 08:34:24;;;;;;;2.42;1.20;;;;;;;21.29;37.12;100304.13;1725972;81;21114;-45
2022/06/15 08:36:51;;;;;;;4.12;1.12;;;;;;;21.37;37.86;100295.80;1725042;81;21646;-45
2022/06/15 08:39:19;;;;;;;4.37;1.15;;;;;;;21.54;38.26;100295.91;1711972;83;21123;-46
2022/06/15 08:41:58;;;;;;;1.77;1.00;;;;;;;21.55;38.88;100300.76;1706419;83;21879;-44
2022/06/15 08:44:54;;;;;;;2.62;1.07;;;;;;;21.45;38.36;100301.19;1700233;83;21080;-39
2022/06/15 08:47:36;;;;;;;1.42;0.65;;;;;;;21.43;38.40;100296.38;1702767;83;21017;-39
2022/06/15 08:50:33;;;;;;;2.08;0.70;;;;;;;21.49;37.34;100296.57;1726598;81;21563;-45
2022/06/15 08:53:17;;;;;;;3.80;1.47;;;;;;;21.60;37.39;100298.28;1724514;81;21050;-40
2022/06/15 08:56:01;;;;;;;2.12;1.40;;;;;;;21.60;37.23;100296.95;1725872;81;21134;-43
2022/06/15 08:59:01;;;;;;;2.90;0.95;;;;;;;21.56;36.25;100295.36;1744779;80;21506;-40
2022/06/15 09:01:48;;;;;;;4.47;0.90;;;;;;;21.55;35.92;100288.31;1746762;81;21492;-40
2022/06/15 09:04:22;;;;;;;4.15;1.05;;;;;;;21.73;36.62;100295.92;1738263;81;21637;-40
2022/06/15 09:07:01;;;;;;;3.05;1.20;;;;;;;21.93;36.44;100288.36;1712505;81;21034;-40
2022/06/15 09:09:51;;;;;;;2.47;1.20;;;;;;;22.08;36.63;100296.07;1734224;81;21050;-44
2022/06/15 09:13:01;;;;;;;2.67;0.95;;;;;;;22.08;37.83;100298.27;1741561;81;21324;-40
2022/06/15 09:15:59;;;;;;;2.80;0.85;;;;;;;22.03;37.38;100293.18;1745098;81;21533;-40
2022/06/15 09:18:50;;;;;;;3.10;1.20;;;;;;;22.04;37.95;100294.05;1749651;81;20991;-45
2022/06/15 09:21:31;;;;;;;3.80;1.15;;;;;;;22.16;37.49;100291.30;1740129;81;21025;-41
2022/06/15 09:24:17;;;;;;;4.40;1.15;;;;;;;22.21;36.44;100293.27;1744094;81;21027;-45
2022/06/15 09:26:53;;;;;;;3.12;1.00;;;;;;;22.16;36.22;100290.83;1734337;81;20986;-41
2022/06/15 09:29:27;;;;;;;2.17;0.88;;;;;;;22.10;35.12;100291.12;1735773;81;21137;-41
2022/06/15 09:32:21;;;;;;;1.92;0.95;;;;;;;22.07;33.47;100293.02;1744748;81;21376;-40
2022/06/15 09:35:16;;;;;;;1.02;0.50;;;;;;;22.05;33.79;100285.97;1718855;82;21049;-41
2022/06/15 09:37:51;;;;;;;2.62;0.90;;;;;;;22.13;33.89;100280.30;1741888;81;21046;-45
2022/06/15 09:40:18;;;;;;;2.58;1.35;;;;;;;22.25;33.65;100269.52;1739206;81;21057;-42
2022/06/15 09:43:05;;;;;;;1.35;0.80;;;;;;;22.40;34.76;100279.44;1739773;82;21021;-44
2022/06/15 09:45:46;;;;;;;1.87;0.85;;;;;;;22.44;34.18;100286.36;1739699;81;21128;-41
2022/06/15 09:48:45;;;;;;;2.33;0.80;;;;;;;22.40;35.47;100287.91;1690780;83;21008;-45
2022/06/15 09:51:48;;;;;;;1.47;0.85;;;;;;;22.41;34.63;100283.83;1689712;83;21582;-45
2022/06/15 09:54:37;;;;;;;2.33;0.80;;;;;;;22.55;34.47;100280.47;1694909;83;21104;-45
2022/06/15 09:57:05;;;;;;;1.85;0.90;;;;;;;22.57;33.81;100270.61;1695624;83;21320;-41
2022/06/15 09:59:33;;;;;;;1.57;0.78;;;;;;;22.46;34.90;100279.61;1682253;84;21107;-45
2022/06/15 10:02:08;;;;;;;7.42;0.80;;;;;;;22.43;34.06;100275.75;1702245;84;21024;-41
2022/06/15 10:04:36;;;;;;;4.50;0.90;;;;;;;22.49;35.04;100282.11;1713329;82;21557;-43
2022/06/15 10:07:11;;;;;;;3.20;0.80;;;;;;;22.58;34.74;100281.19;1726823;81;21009;-45
